Aviation Digital Data Service (ADDS)

Output produced by METARs form (0504 UTC 21 September 2017)
found at http://www.aviationweather.gov/adds/metars/
 
DNAA 210000Z 22003KT 9999 FEW007 25/22 Q1013 NOSIG
TAF DNAA 202140Z 2100/2206 34006KT 9999 FEW008 
     PROB30 2102/2106 5000 -RA BKN008 
     BECMG 2108/2110 25010KT BKN012 
     TEMPO 2112/2114 TS FEW020CB 
     PROB30 
     TEMPO 2114/2120 07015G27KT 5000 TSRA BKN008 FEW017CB 
     BECMG 2120/2122 VRB02KT 9999 FEW010
       
DNAA 210000Z 22003KT 9999 FEW007 25/22 Q1013 NOSIG
TAF DNAA 202140Z 2100/2206 34006KT 9999 FEW008 
     PROB30 2102/2106 5000 -RA BKN008 
     BECMG 2108/2110 25010KT BKN012 
     TEMPO 2112/2114 TS FEW020CB 
     PROB30 
     TEMPO 2114/2120 07015G27KT 5000 TSRA BKN008 FEW017CB 
     BECMG 2120/2122 VRB02KT 9999 FEW010
       
TAF DNCA 202140Z 2100/2206 VRB02KT 6000 SCT008 
     TEMPO 2103/2107 3000 BR 
     BECMG 2103/2107 3000 BR 
     BECMG 2108/2110 25010KT BKN010 FEW020CB
       
TAF DNEN 202140Z 2100/2206 VRB02KT 5000 -TSRA BKN008 FEW019CB 
     BECMG 2102/2104 NSW FEW007 
     PROB30 
     TEMPO 2104/2107 3000 BR 
     BECMG 2108/2110 23010KT BKN012 FEW020CB
       
TAF DNGO 202150Z 2100/2206 27006KT 9999 SCT010 
     TEMPO 2114/2118 TS BKN012 FEW019CB
       
TAF DNIL 202140Z 2100/2206 03007KT 8000 -TSRA BKN008 FEW019CB 
     BECMG 2101/2103 16003KT 9999 NSW FEW008 
     TEMPO 2105/2108 VRB02KT 5000 BR BKN008 
     BECMG 2108/2110 23010KT BKN010
       
TAF DNIM 202140Z 2100/2206 VRB02KT 7000 TS BKN008 FEW019CB 
     BECMG 2101/2103 NSW 
     PROB30 
     TEMPO 2104/2107 4000 BR 
     BECMG 2108/2110 22010KT BKN012 FEW020CB
       
TAF DNJO 202140Z 2100/2206 36007KT 9999 TS BKN005 FEW015CB 
     BECMG 2101/2103 15003KT NSW FEW005 
     PROB30 2104/2108 5000 BR BKN004 
     BECMG 2108/2110 22010KT BKN009 
     TEMPO 2112/2118 TS FEW017CB 
     PROB30 
     TEMPO 2113/2117 07014G34KT 5000 TSRA BKN006 
     BECMG 2118/2120 15005KT 9999 FEW007
       
TAF DNKA 202140Z 2100/2206 00000KT 9999 BKN008 
     PROB30 
     TEMPO 2100/2103 TS FEW018CB 
     BECMG 2109/2111 25010KT BKN012
       
DNKN 210400Z 00000KT 9999 NIL FEW011 23/22 Q1012 NOSIG
TAF DNKN 202150Z 2100/2206 26008KT 9999 SCT012 
     TEMPO 2115/2119 TS FEW021CB
       
TAF DNKT 202150Z 2100/2206 24006KT 9999 SCT012 
     TEMPO 2114/2118 TS FEW020CB
       
TAF DNMA 202150Z 2100/2206 28010KT 9999 SCT012 
     TEMPO 2112/2118 TS BKN014 FEW022CB
       
TAF DNMN 202140Z 2100/2206 03005KT CAVOK 
     BECMG 2109/2112 25010KT BKN012
       
TAF DNPO 202140Z 2100/2206 VRB02KT 7000 TS BKN008 FEW019CB 
     BECMG 2101/2103 NSW SCT008 
     PROB30 
     TEMPO 2104/2107 4000 BR 
     BECMG 2108/2110 22010KT BKN012 FEW020CB
       
TAF DNSO 202150Z 2100/2206 08010G35KT 3000 TSRA BKN010 FEW020CB 
     BECMG 2102/2104 25008KT 9999 SCT012
       
TAF DNYO 201550Z 2018/2124 00000KT 9999 SCT010 FEW019CB 
     TEMPO 2019/2023 05015G30KT 5000 TSRA FEW018CB 
     BECMG 2023/2101 22006KT FEW010
       
DNAA 210000Z 22003KT 9999 FEW007 25/22 Q1013 NOSIG
TAF DNAA 202140Z 2100/2206 34006KT 9999 FEW008 
     PROB30 2102/2106 5000 -RA BKN008 
     BECMG 2108/2110 25010KT BKN012 
     TEMPO 2112/2114 TS FEW020CB 
     PROB30 
     TEMPO 2114/2120 07015G27KT 5000 TSRA BKN008 FEW017CB 
     BECMG 2120/2122 VRB02KT 9999 FEW010
       
TAF DNCA 202140Z 2100/2206 VRB02KT 6000 SCT008 
     TEMPO 2103/2107 3000 BR 
     BECMG 2103/2107 3000 BR 
     BECMG 2108/2110 25010KT BKN010 FEW020CB
       
TAF DNEN 202140Z 2100/2206 VRB02KT 5000 -TSRA BKN008 FEW019CB 
     BECMG 2102/2104 NSW FEW007 
     PROB30 
     TEMPO 2104/2107 3000 BR 
     BECMG 2108/2110 23010KT BKN012 FEW020CB
       
TAF DNGO 202150Z 2100/2206 27006KT 9999 SCT010 
     TEMPO 2114/2118 TS BKN012 FEW019CB
       
TAF DNIL 202140Z 2100/2206 03007KT 8000 -TSRA BKN008 FEW019CB 
     BECMG 2101/2103 16003KT 9999 NSW FEW008 
     TEMPO 2105/2108 VRB02KT 5000 BR BKN008 
     BECMG 2108/2110 23010KT BKN010
       
TAF DNIM 202140Z 2100/2206 VRB02KT 7000 TS BKN008 FEW019CB 
     BECMG 2101/2103 NSW 
     PROB30 
     TEMPO 2104/2107 4000 BR 
     BECMG 2108/2110 22010KT BKN012 FEW020CB
       
TAF DNJO 202140Z 2100/2206 36007KT 9999 TS BKN005 FEW015CB 
     BECMG 2101/2103 15003KT NSW FEW005 
     PROB30 2104/2108 5000 BR BKN004 
     BECMG 2108/2110 22010KT BKN009 
     TEMPO 2112/2118 TS FEW017CB 
     PROB30 
     TEMPO 2113/2117 07014G34KT 5000 TSRA BKN006 
     BECMG 2118/2120 15005KT 9999 FEW007
       
TAF DNKA 202140Z 2100/2206 00000KT 9999 BKN008 
     PROB30 
     TEMPO 2100/2103 TS FEW018CB 
     BECMG 2109/2111 25010KT BKN012
       
DNKN 210400Z 00000KT 9999 NIL FEW011 23/22 Q1012 NOSIG
TAF DNKN 202150Z 2100/2206 26008KT 9999 SCT012 
     TEMPO 2115/2119 TS FEW021CB
       
TAF DNKT 202150Z 2100/2206 24006KT 9999 SCT012 
     TEMPO 2114/2118 TS FEW020CB
       
TAF DNMA 202150Z 2100/2206 28010KT 9999 SCT012 
     TEMPO 2112/2118 TS BKN014 FEW022CB
       
TAF DNMN 202140Z 2100/2206 03005KT CAVOK 
     BECMG 2109/2112 25010KT BKN012
       
TAF DNPO 202140Z 2100/2206 VRB02KT 7000 TS BKN008 FEW019CB 
     BECMG 2101/2103 NSW SCT008 
     PROB30 
     TEMPO 2104/2107 4000 BR 
     BECMG 2108/2110 22010KT BKN012 FEW020CB
       
TAF DNSO 202150Z 2100/2206 08010G35KT 3000 TSRA BKN010 FEW020CB 
     BECMG 2102/2104 25008KT 9999 SCT012
       
TAF DNYO 201550Z 2018/2124 00000KT 9999 SCT010 FEW019CB 
     TEMPO 2019/2023 05015G30KT 5000 TSRA FEW018CB 
     BECMG 2023/2101 22006KT FEW010
       
TAF DNCA 202140Z 2100/2206 VRB02KT 6000 SCT008 
     TEMPO 2103/2107 3000 BR 
     BECMG 2103/2107 3000 BR 
     BECMG 2108/2110 25010KT BKN010 FEW020CB
       
DNAA 210000Z 22003KT 9999 FEW007 25/22 Q1013 NOSIG
TAF DNAA 202140Z 2100/2206 34006KT 9999 FEW008 
     PROB30 2102/2106 5000 -RA BKN008 
     BECMG 2108/2110 25010KT BKN012 
     TEMPO 2112/2114 TS FEW020CB 
     PROB30 
     TEMPO 2114/2120 07015G27KT 5000 TSRA BKN008 FEW017CB 
     BECMG 2120/2122 VRB02KT 9999 FEW010
       
TAF DNCA 202140Z 2100/2206 VRB02KT 6000 SCT008 
     TEMPO 2103/2107 3000 BR 
     BECMG 2103/2107 3000 BR 
     BECMG 2108/2110 25010KT BKN010 FEW020CB
       
TAF DNEN 202140Z 2100/2206 VRB02KT 5000 -TSRA BKN008 FEW019CB 
     BECMG 2102/2104 NSW FEW007 
     PROB30 
     TEMPO 2104/2107 3000 BR 
     BECMG 2108/2110 23010KT BKN012 FEW020CB
       
TAF DNGO 202150Z 2100/2206 27006KT 9999 SCT010 
     TEMPO 2114/2118 TS BKN012 FEW019CB
       
TAF DNIL 202140Z 2100/2206 03007KT 8000 -TSRA BKN008 FEW019CB 
     BECMG 2101/2103 16003KT 9999 NSW FEW008 
     TEMPO 2105/2108 VRB02KT 5000 BR BKN008 
     BECMG 2108/2110 23010KT BKN010
       
TAF DNIM 202140Z 2100/2206 VRB02KT 7000 TS BKN008 FEW019CB 
     BECMG 2101/2103 NSW 
     PROB30 
     TEMPO 2104/2107 4000 BR 
     BECMG 2108/2110 22010KT BKN012 FEW020CB
       
TAF DNJO 202140Z 2100/2206 36007KT 9999 TS BKN005 FEW015CB 
     BECMG 2101/2103 15003KT NSW FEW005 
     PROB30 2104/2108 5000 BR BKN004 
     BECMG 2108/2110 22010KT BKN009 
     TEMPO 2112/2118 TS FEW017CB 
     PROB30 
     TEMPO 2113/2117 07014G34KT 5000 TSRA BKN006 
     BECMG 2118/2120 15005KT 9999 FEW007
       
TAF DNKA 202140Z 2100/2206 00000KT 9999 BKN008 
     PROB30 
     TEMPO 2100/2103 TS FEW018CB 
     BECMG 2109/2111 25010KT BKN012
       
DNKN 210400Z 00000KT 9999 NIL FEW011 23/22 Q1012 NOSIG
TAF DNKN 202150Z 2100/2206 26008KT 9999 SCT012 
     TEMPO 2115/2119 TS FEW021CB
       
TAF DNKT 202150Z 2100/2206 24006KT 9999 SCT012 
     TEMPO 2114/2118 TS FEW020CB
       
TAF DNMA 202150Z 2100/2206 28010KT 9999 SCT012 
     TEMPO 2112/2118 TS BKN014 FEW022CB
       
TAF DNMN 202140Z 2100/2206 03005KT CAVOK 
     BECMG 2109/2112 25010KT BKN012
       
TAF DNPO 202140Z 2100/2206 VRB02KT 7000 TS BKN008 FEW019CB 
     BECMG 2101/2103 NSW SCT008 
     PROB30 
     TEMPO 2104/2107 4000 BR 
     BECMG 2108/2110 22010KT BKN012 FEW020CB
       
TAF DNSO 202150Z 2100/2206 08010G35KT 3000 TSRA BKN010 FEW020CB 
     BECMG 2102/2104 25008KT 9999 SCT012
       
TAF DNYO 201550Z 2018/2124 00000KT 9999 SCT010 FEW019CB 
     TEMPO 2019/2023 05015G30KT 5000 TSRA FEW018CB 
     BECMG 2023/2101 22006KT FEW010
       
TAF DNEN 202140Z 2100/2206 VRB02KT 5000 -TSRA BKN008 FEW019CB 
     BECMG 2102/2104 NSW FEW007 
     PROB30 
     TEMPO 2104/2107 3000 BR 
     BECMG 2108/2110 23010KT BKN012 FEW020CB
       
DNAA 210000Z 22003KT 9999 FEW007 25/22 Q1013 NOSIG
TAF DNAA 202140Z 2100/2206 34006KT 9999 FEW008 
     PROB30 2102/2106 5000 -RA BKN008 
     BECMG 2108/2110 25010KT BKN012 
     TEMPO 2112/2114 TS FEW020CB 
     PROB30 
     TEMPO 2114/2120 07015G27KT 5000 TSRA BKN008 FEW017CB 
     BECMG 2120/2122 VRB02KT 9999 FEW010
       
TAF DNCA 202140Z 2100/2206 VRB02KT 6000 SCT008 
     TEMPO 2103/2107 3000 BR 
     BECMG 2103/2107 3000 BR 
     BECMG 2108/2110 25010KT BKN010 FEW020CB
       
TAF DNEN 202140Z 2100/2206 VRB02KT 5000 -TSRA BKN008 FEW019CB 
     BECMG 2102/2104 NSW FEW007 
     PROB30 
     TEMPO 2104/2107 3000 BR 
     BECMG 2108/2110 23010KT BKN012 FEW020CB
       
TAF DNGO 202150Z 2100/2206 27006KT 9999 SCT010 
     TEMPO 2114/2118 TS BKN012 FEW019CB
       
TAF DNIL 202140Z 2100/2206 03007KT 8000 -TSRA BKN008 FEW019CB 
     BECMG 2101/2103 16003KT 9999 NSW FEW008 
     TEMPO 2105/2108 VRB02KT 5000 BR BKN008 
     BECMG 2108/2110 23010KT BKN010
       
TAF DNIM 202140Z 2100/2206 VRB02KT 7000 TS BKN008 FEW019CB 
     BECMG 2101/2103 NSW 
     PROB30 
     TEMPO 2104/2107 4000 BR 
     BECMG 2108/2110 22010KT BKN012 FEW020CB
       
TAF DNJO 202140Z 2100/2206 36007KT 9999 TS BKN005 FEW015CB 
     BECMG 2101/2103 15003KT NSW FEW005 
     PROB30 2104/2108 5000 BR BKN004 
     BECMG 2108/2110 22010KT BKN009 
     TEMPO 2112/2118 TS FEW017CB 
     PROB30 
     TEMPO 2113/2117 07014G34KT 5000 TSRA BKN006 
     BECMG 2118/2120 15005KT 9999 FEW007
       
TAF DNKA 202140Z 2100/2206 00000KT 9999 BKN008 
     PROB30 
     TEMPO 2100/2103 TS FEW018CB 
     BECMG 2109/2111 25010KT BKN012
       
DNKN 210400Z 00000KT 9999 NIL FEW011 23/22 Q1012 NOSIG
TAF DNKN 202150Z 2100/2206 26008KT 9999 SCT012 
     TEMPO 2115/2119 TS FEW021CB
       
TAF DNKT 202150Z 2100/2206 24006KT 9999 SCT012 
     TEMPO 2114/2118 TS FEW020CB
       
TAF DNMA 202150Z 2100/2206 28010KT 9999 SCT012 
     TEMPO 2112/2118 TS BKN014 FEW022CB
       
TAF DNMN 202140Z 2100/2206 03005KT CAVOK 
     BECMG 2109/2112 25010KT BKN012
       
TAF DNPO 202140Z 2100/2206 VRB02KT 7000 TS BKN008 FEW019CB 
     BECMG 2101/2103 NSW SCT008 
     PROB30 
     TEMPO 2104/2107 4000 BR 
     BECMG 2108/2110 22010KT BKN012 FEW020CB
       
TAF DNSO 202150Z 2100/2206 08010G35KT 3000 TSRA BKN010 FEW020CB 
     BECMG 2102/2104 25008KT 9999 SCT012
       
TAF DNYO 201550Z 2018/2124 00000KT 9999 SCT010 FEW019CB 
     TEMPO 2019/2023 05015G30KT 5000 TSRA FEW018CB 
     BECMG 2023/2101 22006KT FEW010
       
TAF DNIL 202140Z 2100/2206 03007KT 8000 -TSRA BKN008 FEW019CB 
     BECMG 2101/2103 16003KT 9999 NSW FEW008 
     TEMPO 2105/2108 VRB02KT 5000 BR BKN008 
     BECMG 2108/2110 23010KT BKN010
       
TAF DNJO 202140Z 2100/2206 36007KT 9999 TS BKN005 FEW015CB 
     BECMG 2101/2103 15003KT NSW FEW005 
     PROB30 2104/2108 5000 BR BKN004 
     BECMG 2108/2110 22010KT BKN009 
     TEMPO 2112/2118 TS FEW017CB 
     PROB30 
     TEMPO 2113/2117 07014G34KT 5000 TSRA BKN006 
     BECMG 2118/2120 15005KT 9999 FEW007
       
TAF DNKA 202140Z 2100/2206 00000KT 9999 BKN008 
     PROB30 
     TEMPO 2100/2103 TS FEW018CB 
     BECMG 2109/2111 25010KT BKN012
       
DNKN 210400Z 00000KT 9999 NIL FEW011 23/22 Q1012 NOSIG
TAF DNKN 202150Z 2100/2206 26008KT 9999 SCT012 
     TEMPO 2115/2119 TS FEW021CB
       
TAF DNMA 202150Z 2100/2206 28010KT 9999 SCT012 
     TEMPO 2112/2118 TS BKN014 FEW022CB
       
TAF DNMN 202140Z 2100/2206 03005KT CAVOK 
     BECMG 2109/2112 25010KT BKN012
       
TAF DNPO 202140Z 2100/2206 VRB02KT 7000 TS BKN008 FEW019CB 
     BECMG 2101/2103 NSW SCT008 
     PROB30 
     TEMPO 2104/2107 4000 BR 
     BECMG 2108/2110 22010KT BKN012 FEW020CB
       
TAF DNSO 202150Z 2100/2206 08010G35KT 3000 TSRA BKN010 FEW020CB 
     BECMG 2102/2104 25008KT 9999 SCT012
       
TAF DNYO 201550Z 2018/2124 00000KT 9999 SCT010 FEW019CB 
     TEMPO 2019/2023 05015G30KT 5000 TSRA FEW018CB 
     BECMG 2023/2101 22006KT FEW010